Space — ZCTI8 — position and weather

sailwx.info

Track history (hours):
 
Tides and Currents Weather Stations Pressure Air Temp Water Temp Dewpoint Dewpoint Depression Visibility Wind Speed Wind Dir Waves Ship Positions

Space

Last reported at 2015-Jun-30 19:33 UTC. Time now 2015-Jun-30 19:46 UTC.
Position N 43°35' E 007°07'.

Length 45 m; draft 2.7 m.

Type: Pleasure craft. MMSI: 319917000.

Date/timePositionNaut miles runAvg speedWind from/ knotsBaromVisibWave heightAir tempDewpointWater temp
2015-Jun-30 19:33N 43°35' E 007°07'0 0.0
2015-Jun-30 18:33N 43°35' E 007°07'0 0.0
2015-Jun-30 17:33N 43°35' E 007°07'0 0.0
2015-Jun-30 16:33N 43°35' E 007°07'0 0.0
2015-Jun-30 15:33N 43°35' E 007°07'0 0.0
2015-Jun-30 14:33N 43°35' E 007°07'0 0.0
2015-Jun-30 13:33N 43°35' E 007°07'0 0.0
2015-Jun-30 12:33N 43°35' E 007°07'0 0.0
2015-Jun-30 11:33N 43°35' E 007°07'0 0.0
2015-Jun-30 10:33N 43°35' E 007°07'0 0.0
2015-Jun-30 09:33N 43°35' E 007°07'0 0.0
2015-Jun-30 08:33N 43°35' E 007°07'0 0.1
2015-Jun-30 07:33N 43°35' E 007°08'5 4.1
2015-Jun-30 06:26N 43°39' E 007°11'4 4.2
2015-Jun-30 05:33N 43°36' E 007°08'1 1.2
2015-Jun-30 04:32N 43°35' E 007°08'0 0.0
2015-Jun-30 03:32N 43°35' E 007°08'0 0.0
2015-Jun-30 02:32N 43°35' E 007°08'0 0.0
2015-Jun-30 01:32N 43°35' E 007°08'0 0.0
2015-Jun-30 00:32N 43°35' E 007°08'0 0.0
2015-Jun-29 23:32N 43°35' E 007°08'0 0.0
2015-Jun-29 22:26N 43°35' E 007°08'0 0.0
2015-Jun-29 21:32N 43°35' E 007°08'0 0.0
2015-Jun-29 20:32N 43°35' E 007°08'0 0.0
2015-Jun-29 19:32N 43°35' E 007°08'0 0.0
2015-Jun-29 18:32N 43°35' E 007°08'0 0.0
2015-Jun-29 17:32N 43°35' E 007°08'0 0.0
2015-Jun-29 16:33N 43°35' E 007°08'0 0.0
2015-Jun-29 15:33N 43°35' E 007°08'1 1.4
2015-Jun-29 14:33N 43°34' E 007°09'2712.0
2015-Jun-29 12:19N 43°17' E 006°40'23 1.1
2015-Jun-28 15:33N 43°30' E 007°06'1313.4
2015-Jun-28 14:33N 43°40' E 007°18'2 0.4
2015-Jun-28 10:16N 43°42' E 007°19'0 0.0
2015-Jun-28 02:04N 43°42' E 007°19'0 0.0
2015-Jun-28 01:22N 43°42' E 007°19'0 0.0
2015-Jun-27 19:28N 43°42' E 007°19'0 0.0
2015-Jun-27 18:28N 43°42' E 007°19'0 0.0
2015-Jun-27 17:25N 43°42' E 007°19'0 0.0
2015-Jun-27 16:13N 43°42' E 007°19'0 0.0
2015-Jun-27 15:31N 43°42' E 007°19'0 0.0
2015-Jun-27 14:19N 43°42' E 007°19'0 0.0
2015-Jun-27 13:31N 43°42' E 007°19'0 0.0
2015-Jun-27 12:10N 43°42' E 007°19'0 0.0
2015-Jun-27 01:25N 43°42' E 007°19'0 0.0
2015-Jun-26 22:31N 43°42' E 007°19'0 0.0
2015-Jun-26 21:13N 43°42' E 007°19'0 0.0
2015-Jun-26 20:19N 43°42' E 007°19'6 7.2
2015-Jun-26 19:33N 43°38' E 007°13'2 1.4
2015-Jun-26 18:25N 43°39' E 007°11'0 0.0
2015-Jun-26 17:33N 43°39' E 007°11'0 0.0
2015-Jun-26 16:33N 43°39' E 007°11'0 0.0
2015-Jun-26 15:33N 43°39' E 007°11'0 0.0
2015-Jun-26 14:30N 43°39' E 007°11'0 0.0
2015-Jun-26 13:33N 43°39' E 007°11'0 0.0
2015-Jun-26 12:33N 43°39' E 007°11'5 4.6
2015-Jun-26 11:33N 43°35' E 007°07'0 0.0
2015-Jun-26 10:28N 43°35' E 007°07'0 0.0
2015-Jun-26 09:28N 43°35' E 007°07'0 0.0
2015-Jun-26 08:28N 43°35' E 007°07'0 0.0
2015-Jun-26 07:28N 43°35' E 007°07'0 0.0
2015-Jun-26 06:28N 43°35' E 007°07'0 0.0
2015-Jun-26 05:28N 43°35' E 007°07'0 0.0
2015-Jun-26 04:28N 43°35' E 007°07'0 0.0
2015-Jun-26 03:28N 43°35' E 007°07'0 0.0
2015-Jun-26 02:28N 43°35' E 007°07'0 0.0
2015-Jun-26 01:22N 43°35' E 007°07'0 0.0
2015-Jun-26 00:28N 43°35' E 007°07'0 0.0
2015-Jun-25 23:28N 43°35' E 007°07'0 0.0
2015-Jun-25 22:28N 43°35' E 007°07'0 0.0
2015-Jun-25 21:28N 43°35' E 007°07'0 0.0
2015-Jun-25 20:28N 43°35' E 007°07'0 0.0
2015-Jun-25 19:28N 43°35' E 007°07'0 0.0
2015-Jun-25 18:28N 43°35' E 007°07'0 0.0
2015-Jun-25 17:28N 43°35' E 007°07'0 0.0
2015-Jun-25 16:28N 43°35' E 007°07'0 0.0
2015-Jun-25 15:28N 43°35' E 007°07'0 0.0
2015-Jun-25 14:28N 43°35' E 007°07'0 0.0
2015-Jun-25 13:28N 43°35' E 007°07'0 0.0
2015-Jun-25 12:28N 43°35' E 007°07'0 0.0
2015-Jun-25 11:28N 43°35' E 007°07'0 0.0
2015-Jun-25 10:28N 43°35' E 007°07'0 0.0
2015-Jun-25 09:28N 43°35' E 007°07'0 0.0
2015-Jun-25 08:28N 43°35' E 007°07'0 0.0
2015-Jun-25 07:28N 43°35' E 007°07'0 0.0
2015-Jun-25 06:28N 43°35' E 007°07'0 0.0
2015-Jun-25 05:28N 43°35' E 007°07'0 0.0
2015-Jun-25 04:28N 43°35' E 007°07'0 0.0
2015-Jun-25 03:28N 43°35' E 007°07'0 0.0
2015-Jun-25 02:28N 43°35' E 007°07'0 0.0
2015-Jun-25 01:28N 43°35' E 007°07'0 0.0
2015-Jun-25 00:22N 43°35' E 007°07'0 0.0
2015-Jun-24 23:28N 43°35' E 007°07'0 0.0
2015-Jun-24 22:28N 43°35' E 007°07'0 0.0
2015-Jun-24 21:28N 43°35' E 007°07'0 0.0
2015-Jun-24 20:28N 43°35' E 007°07'0 0.0
2015-Jun-24 19:28N 43°35' E 007°07'0 0.0
2015-Jun-24 18:28N 43°35' E 007°07'0 0.0
2015-Jun-24 17:28N 43°35' E 007°07'0 0.0
2015-Jun-24 16:28N 43°35' E 007°07'0 0.0
2015-Jun-24 15:28N 43°35' E 007°07'0 0.0
2015-Jun-24 14:28N 43°35' E 007°07'0 0.0
2015-Jun-24 13:28N 43°35' E 007°07'0 0.0
2015-Jun-24 12:22N 43°35' E 007°07'0 0.0
2015-Jun-24 11:28N 43°35' E 007°07'0 0.0
2015-Jun-24 10:28N 43°35' E 007°07'0 0.0
2015-Jun-24 09:28N 43°35' E 007°07'0 0.0
2015-Jun-24 08:28N 43°35' E 007°07'0 0.0
2015-Jun-24 07:28N 43°35' E 007°07'0 0.0
2015-Jun-24 06:28N 43°35' E 007°07'0 0.0
2015-Jun-24 05:28N 43°35' E 007°07'0 0.0
2015-Jun-24 04:28N 43°35' E 007°07'0 0.0
2015-Jun-24 03:28N 43°35' E 007°07'0 0.0
2015-Jun-24 02:28N 43°35' E 007°07'0 0.0
2015-Jun-24 01:28N 43°35' E 007°07'0 0.0
2015-Jun-24 00:28N 43°35' E 007°07'0 0.0
2015-Jun-23 23:28N 43°35' E 007°07'0 0.0
2015-Jun-23 22:28N 43°35' E 007°07'0 0.0
2015-Jun-23 21:28N 43°35' E 007°07'0 0.0
2015-Jun-23 20:22N 43°35' E 007°07'0 0.0
2015-Jun-23 19:28N 43°35' E 007°07'0 0.0
2015-Jun-23 18:58N 43°35' E 007°07'0 0.0
2015-Jun-22 19:28N 43°35' E 007°07'0 0.0
2015-Jun-22 18:28N 43°35' E 007°07'0 0.0
2015-Jun-22 17:28N 43°35' E 007°07'0 0.0
2015-Jun-22 16:28N 43°35' E 007°07'0 0.0
2015-Jun-22 15:28N 43°35' E 007°07'0 0.0
2015-Jun-22 14:33N 43°35' E 007°07'5 4.6
2015-Jun-22 13:33N 43°39' E 007°11'12 0.7
2015-Jun-21 19:06N 43°44' E 007°26'0 0.0
2015-Jun-21 18:33N 43°44' E 007°26'0 0.3
2015-Jun-21 17:33N 43°44' E 007°26'1313.2
2015-Jun-21 16:33N 43°35' E 007°13'  
Track history (hours):
 
Tides and Currents Weather Stations Pressure Air Temp Water Temp Dewpoint Dewpoint Depression Visibility Wind Speed Wind Dir Waves Ship Positions

Space

Last reported at 2015-Jun-30 19:33 UTC. Time now 2015-Jun-30 19:46 UTC.
Position N 43°35' E 007°07'.

Length 45 m; draft 2.7 m.

Type: Pleasure craft. MMSI: 319917000.

Date/timePositionNaut miles runAvg speedWind from/ knotsBaromVisibWave heightAir tempDewpointWater temp
2015-Jun-30 19:33N 43°35' E 007°07'0 0.0
2015-Jun-30 18:33N 43°35' E 007°07'0 0.0
2015-Jun-30 17:33N 43°35' E 007°07'0 0.0
2015-Jun-30 16:33N 43°35' E 007°07'0 0.0
2015-Jun-30 15:33N 43°35' E 007°07'0 0.0
2015-Jun-30 14:33N 43°35' E 007°07'0 0.0
2015-Jun-30 13:33N 43°35' E 007°07'0 0.0
2015-Jun-30 12:33N 43°35' E 007°07'0 0.0
2015-Jun-30 11:33N 43°35' E 007°07'0 0.0
2015-Jun-30 10:33N 43°35' E 007°07'0 0.0
2015-Jun-30 09:33N 43°35' E 007°07'0 0.0
2015-Jun-30 08:33N 43°35' E 007°07'0 0.1
2015-Jun-30 07:33N 43°35' E 007°08'5 4.1
2015-Jun-30 06:26N 43°39' E 007°11'4 4.2
2015-Jun-30 05:33N 43°36' E 007°08'1 1.2
2015-Jun-30 04:32N 43°35' E 007°08'0 0.0
2015-Jun-30 03:32N 43°35' E 007°08'0 0.0
2015-Jun-30 02:32N 43°35' E 007°08'0 0.0
2015-Jun-30 01:32N 43°35' E 007°08'0 0.0
2015-Jun-30 00:32N 43°35' E 007°08'0 0.0
2015-Jun-29 23:32N 43°35' E 007°08'0 0.0
2015-Jun-29 22:26N 43°35' E 007°08'0 0.0
2015-Jun-29 21:32N 43°35' E 007°08'0 0.0
2015-Jun-29 20:32N 43°35' E 007°08'0 0.0
2015-Jun-29 19:32N 43°35' E 007°08'0 0.0
2015-Jun-29 18:32N 43°35' E 007°08'0 0.0
2015-Jun-29 17:32N 43°35' E 007°08'0 0.0
2015-Jun-29 16:33N 43°35' E 007°08'0 0.0
2015-Jun-29 15:33N 43°35' E 007°08'1 1.4
2015-Jun-29 14:33N 43°34' E 007°09'2712.0
2015-Jun-29 12:19N 43°17' E 006°40'23 1.1
2015-Jun-28 15:33N 43°30' E 007°06'1313.4
2015-Jun-28 14:33N 43°40' E 007°18'2 0.4
2015-Jun-28 10:16N 43°42' E 007°19'0 0.0
2015-Jun-28 02:04N 43°42' E 007°19'0 0.0
2015-Jun-28 01:22N 43°42' E 007°19'0 0.0
2015-Jun-27 19:28N 43°42' E 007°19'0 0.0
2015-Jun-27 18:28N 43°42' E 007°19'0 0.0
2015-Jun-27 17:25N 43°42' E 007°19'0 0.0
2015-Jun-27 16:13N 43°42' E 007°19'0 0.0
2015-Jun-27 15:31N 43°42' E 007°19'0 0.0
2015-Jun-27 14:19N 43°42' E 007°19'0 0.0
2015-Jun-27 13:31N 43°42' E 007°19'0 0.0
2015-Jun-27 12:10N 43°42' E 007°19'0 0.0
2015-Jun-27 01:25N 43°42' E 007°19'0 0.0
2015-Jun-26 22:31N 43°42' E 007°19'0 0.0
2015-Jun-26 21:13N 43°42' E 007°19'0 0.0
2015-Jun-26 20:19N 43°42' E 007°19'6 7.2
2015-Jun-26 19:33N 43°38' E 007°13'2 1.4
2015-Jun-26 18:25N 43°39' E 007°11'0 0.0
2015-Jun-26 17:33N 43°39' E 007°11'0 0.0
2015-Jun-26 16:33N 43°39' E 007°11'0 0.0
2015-Jun-26 15:33N 43°39' E 007°11'0 0.0
2015-Jun-26 14:30N 43°39' E 007°11'0 0.0
2015-Jun-26 13:33N 43°39' E 007°11'0 0.0
2015-Jun-26 12:33N 43°39' E 007°11'5 4.6
2015-Jun-26 11:33N 43°35' E 007°07'0 0.0
2015-Jun-26 10:28N 43°35' E 007°07'0 0.0
2015-Jun-26 09:28N 43°35' E 007°07'0 0.0
2015-Jun-26 08:28N 43°35' E 007°07'0 0.0
2015-Jun-26 07:28N 43°35' E 007°07'0 0.0
2015-Jun-26 06:28N 43°35' E 007°07'0 0.0
2015-Jun-26 05:28N 43°35' E 007°07'0 0.0
2015-Jun-26 04:28N 43°35' E 007°07'0 0.0
2015-Jun-26 03:28N 43°35' E 007°07'0 0.0
2015-Jun-26 02:28N 43°35' E 007°07'0 0.0
2015-Jun-26 01:22N 43°35' E 007°07'0 0.0
2015-Jun-26 00:28N 43°35' E 007°07'0 0.0
2015-Jun-25 23:28N 43°35' E 007°07'0 0.0
2015-Jun-25 22:28N 43°35' E 007°07'0 0.0
2015-Jun-25 21:28N 43°35' E 007°07'0 0.0
2015-Jun-25 20:28N 43°35' E 007°07'0 0.0
2015-Jun-25 19:28N 43°35' E 007°07'0 0.0
2015-Jun-25 18:28N 43°35' E 007°07'0 0.0
2015-Jun-25 17:28N 43°35' E 007°07'0 0.0
2015-Jun-25 16:28N 43°35' E 007°07'0 0.0
2015-Jun-25 15:28N 43°35' E 007°07'0 0.0
2015-Jun-25 14:28N 43°35' E 007°07'0 0.0
2015-Jun-25 13:28N 43°35' E 007°07'0 0.0
2015-Jun-25 12:28N 43°35' E 007°07'0 0.0
2015-Jun-25 11:28N 43°35' E 007°07'0 0.0
2015-Jun-25 10:28N 43°35' E 007°07'0 0.0
2015-Jun-25 09:28N 43°35' E 007°07'0 0.0
2015-Jun-25 08:28N 43°35' E 007°07'0 0.0
2015-Jun-25 07:28N 43°35' E 007°07'0 0.0
2015-Jun-25 06:28N 43°35' E 007°07'0 0.0
2015-Jun-25 05:28N 43°35' E 007°07'0 0.0
2015-Jun-25 04:28N 43°35' E 007°07'0 0.0
2015-Jun-25 03:28N 43°35' E 007°07'0 0.0
2015-Jun-25 02:28N 43°35' E 007°07'0 0.0
2015-Jun-25 01:28N 43°35' E 007°07'0 0.0
2015-Jun-25 00:22N 43°35' E 007°07'0 0.0
2015-Jun-24 23:28N 43°35' E 007°07'0 0.0
2015-Jun-24 22:28N 43°35' E 007°07'0 0.0
2015-Jun-24 21:28N 43°35' E 007°07'0 0.0
2015-Jun-24 20:28N 43°35' E 007°07'0 0.0
2015-Jun-24 19:28N 43°35' E 007°07'0 0.0
2015-Jun-24 18:28N 43°35' E 007°07'0 0.0
2015-Jun-24 17:28N 43°35' E 007°07'0 0.0
2015-Jun-24 16:28N 43°35' E 007°07'0 0.0
2015-Jun-24 15:28N 43°35' E 007°07'0 0.0
2015-Jun-24 14:28N 43°35' E 007°07'0 0.0
2015-Jun-24 13:28N 43°35' E 007°07'0 0.0
2015-Jun-24 12:22N 43°35' E 007°07'0 0.0
2015-Jun-24 11:28N 43°35' E 007°07'0 0.0
2015-Jun-24 10:28N 43°35' E 007°07'0 0.0
2015-Jun-24 09:28N 43°35' E 007°07'0 0.0
2015-Jun-24 08:28N 43°35' E 007°07'0 0.0
2015-Jun-24 07:28N 43°35' E 007°07'0 0.0
2015-Jun-24 06:28N 43°35' E 007°07'0 0.0
2015-Jun-24 05:28N 43°35' E 007°07'0 0.0
2015-Jun-24 04:28N 43°35' E 007°07'0 0.0
2015-Jun-24 03:28N 43°35' E 007°07'0 0.0
2015-Jun-24 02:28N 43°35' E 007°07'0 0.0
2015-Jun-24 01:28N 43°35' E 007°07'0 0.0
2015-Jun-24 00:28N 43°35' E 007°07'0 0.0
2015-Jun-23 23:28N 43°35' E 007°07'0 0.0
2015-Jun-23 22:28N 43°35' E 007°07'0 0.0
2015-Jun-23 21:28N 43°35' E 007°07'0 0.0
2015-Jun-23 20:22N 43°35' E 007°07'0 0.0
2015-Jun-23 19:28N 43°35' E 007°07'0 0.0
2015-Jun-23 18:58N 43°35' E 007°07'0 0.0
2015-Jun-22 19:28N 43°35' E 007°07'0 0.0
2015-Jun-22 18:28N 43°35' E 007°07'0 0.0
2015-Jun-22 17:28N 43°35' E 007°07'0 0.0
2015-Jun-22 16:28N 43°35' E 007°07'0 0.0
2015-Jun-22 15:28N 43°35' E 007°07'0 0.0
2015-Jun-22 14:33N 43°35' E 007°07'5 4.6
2015-Jun-22 13:33N 43°39' E 007°11'12 0.7
2015-Jun-21 19:06N 43°44' E 007°26'0 0.0
2015-Jun-21 18:33N 43°44' E 007°26'0 0.3
2015-Jun-21 17:33N 43°44' E 007°26'1313.2
2015-Jun-21 16:33N 43°35' E 007°13'  

Dump ship's entire track history